sensor_id;sensor_type;location;lat;lon;timestamp;P1;durP1;ratioP1;P2;durP2;ratioP2
5157;SDS011;2598;52.364;9.772;2023-04-07T00:02:05;18.00;;;9.30;;
5157;SDS011;2598;52.364;9.772;2023-04-07T00:04:31;17.90;;;8.97;;
5157;SDS011;2598;52.364;9.772;2023-04-07T00:06:57;16.43;;;9.13;;
5157;SDS011;2598;52.364;9.772;2023-04-07T00:09:22;12.40;;;7.60;;
5157;SDS011;2598;52.364;9.772;2023-04-07T00:11:48;16.17;;;9.57;;
5157;SDS011;2598;52.364;9.772;2023-04-07T00:14:15;16.63;;;8.93;;
5157;SDS011;2598;52.364;9.772;2023-04-07T00:16:41;19.03;;;9.10;;
5157;SDS011;2598;52.364;9.772;2023-04-07T00:19:06;16.20;;;8.43;;
5157;SDS011;2598;52.364;9.772;2023-04-07T00:21:32;16.20;;;9.63;;
5157;SDS011;2598;52.364;9.772;2023-04-07T00:23:58;17.90;;;9.50;;
5157;SDS011;2598;52.364;9.772;2023-04-07T00:26:24;20.40;;;10.77;;
5157;SDS011;2598;52.364;9.772;2023-04-07T00:28:55;16.03;;;9.03;;
5157;SDS011;2598;52.364;9.772;2023-04-07T00:31:21;14.00;;;8.07;;
5157;SDS011;2598;52.364;9.772;2023-04-07T00:33:47;16.20;;;8.93;;
5157;SDS011;2598;52.364;9.772;2023-04-07T00:36:13;18.77;;;9.30;;
5157;SDS011;2598;52.364;9.772;2023-04-07T00:38:39;15.03;;;8.67;;
5157;SDS011;2598;52.364;9.772;2023-04-07T00:41:05;16.50;;;9.63;;
5157;SDS011;2598;52.364;9.772;2023-04-07T00:43:31;16.00;;;8.30;;
5157;SDS011;2598;52.364;9.772;2023-04-07T00:45:57;14.93;;;8.60;;
5157;SDS011;2598;52.364;9.772;2023-04-07T00:48:23;14.07;;;8.80;;
5157;SDS011;2598;52.364;9.772;2023-04-07T00:50:50;12.83;;;8.23;;
5157;SDS011;2598;52.364;9.772;2023-04-07T00:53:16;15.00;;;8.50;;
5157;SDS011;2598;52.364;9.772;2023-04-07T00:55:42;13.93;;;8.63;;
5157;SDS011;2598;52.364;9.772;2023-04-07T00:58:08;14.57;;;8.80;;
5157;SDS011;2598;52.364;9.772;2023-04-07T01:00:35;17.20;;;9.10;;
5157;SDS011;2598;52.364;9.772;2023-04-07T01:03:08;14.77;;;8.90;;
5157;SDS011;2598;52.364;9.772;2023-04-07T01:05:47;16.67;;;10.00;;
5157;SDS011;2598;52.364;9.772;2023-04-07T01:13:21;15.70;;;8.73;;
5157;SDS011;2598;52.364;9.772;2023-04-07T01:15:49;13.13;;;8.70;;
5157;SDS011;2598;52.364;9.772;2023-04-07T01:18:20;24.73;;;8.70;;
5157;SDS011;2598;52.364;9.772;2023-04-07T01:20:47;13.90;;;8.43;;
5157;SDS011;2598;52.364;9.772;2023-04-07T01:23:21;15.73;;;10.00;;
5157;SDS011;2598;52.364;9.772;2023-04-07T01:26:06;14.67;;;8.37;;
5157;SDS011;2598;52.364;9.772;2023-04-07T01:31:19;14.10;;;8.60;;
5157;SDS011;2598;52.364;9.772;2023-04-07T01:33:45;14.80;;;9.23;;
5157;SDS011;2598;52.364;9.772;2023-04-07T01:36:12;14.97;;;9.40;;
5157;SDS011;2598;52.364;9.772;2023-04-07T01:38:39;16.73;;;9.80;;
5157;SDS011;2598;52.364;9.772;2023-04-07T01:41:05;15.30;;;9.30;;
5157;SDS011;2598;52.364;9.772;2023-04-07T01:43:32;13.20;;;8.20;;
5157;SDS011;2598;52.364;9.772;2023-04-07T01:45:58;17.80;;;9.33;;
5157;SDS011;2598;52.364;9.772;2023-04-07T01:48:24;15.93;;;8.73;;
5157;SDS011;2598;52.364;9.772;2023-04-07T01:50:50;20.20;;;10.30;;
5157;SDS011;2598;52.364;9.772;2023-04-07T01:53:16;14.83;;;8.43;;
5157;SDS011;2598;52.364;9.772;2023-04-07T01:55:42;17.60;;;9.23;;
5157;SDS011;2598;52.364;9.772;2023-04-07T01:58:08;16.73;;;9.53;;
5157;SDS011;2598;52.364;9.772;2023-04-07T02:00:34;14.30;;;9.67;;
5157;SDS011;2598;52.364;9.772;2023-04-07T02:03:14;16.73;;;9.30;;
5157;SDS011;2598;52.364;9.772;2023-04-07T02:05:45;18.87;;;9.70;;
5157;SDS011;2598;52.364;9.772;2023-04-07T02:08:12;19.73;;;10.03;;
5157;SDS011;2598;52.364;9.772;2023-04-07T02:10:39;14.10;;;9.40;;
5157;SDS011;2598;52.364;9.772;2023-04-07T02:13:06;14.93;;;8.80;;
5157;SDS011;2598;52.364;9.772;2023-04-07T02:15:33;16.60;;;10.23;;
5157;SDS011;2598;52.364;9.772;2023-04-07T02:17:59;16.67;;;9.93;;
5157;SDS011;2598;52.364;9.772;2023-04-07T02:20:25;14.13;;;8.93;;
5157;SDS011;2598;52.364;9.772;2023-04-07T02:22:53;17.07;;;10.13;;
5157;SDS011;2598;52.364;9.772;2023-04-07T02:25:29;18.57;;;10.90;;
5157;SDS011;2598;52.364;9.772;2023-04-07T02:27:56;15.90;;;9.30;;
5157;SDS011;2598;52.364;9.772;2023-04-07T02:30:22;17.07;;;10.23;;
5157;SDS011;2598;52.364;9.772;2023-04-07T02:32:48;15.80;;;9.57;;
5157;SDS011;2598;52.364;9.772;2023-04-07T02:35:14;15.07;;;10.37;;
5157;SDS011;2598;52.364;9.772;2023-04-07T02:37:40;15.90;;;9.93;;
5157;SDS011;2598;52.364;9.772;2023-04-07T02:40:07;16.00;;;9.77;;
5157;SDS011;2598;52.364;9.772;2023-04-07T02:42:33;14.40;;;9.30;;
5157;SDS011;2598;52.364;9.772;2023-04-07T02:45:00;14.43;;;8.77;;
5157;SDS011;2598;52.364;9.772;2023-04-07T02:47:26;16.97;;;8.93;;
5157;SDS011;2598;52.364;9.772;2023-04-07T02:49:52;16.97;;;8.90;;
5157;SDS011;2598;52.364;9.772;2023-04-07T02:52:18;13.50;;;8.80;;
5157;SDS011;2598;52.364;9.772;2023-04-07T02:54:44;17.80;;;8.87;;
5157;SDS011;2598;52.364;9.772;2023-04-07T02:57:10;17.57;;;9.77;;
5157;SDS011;2598;52.364;9.772;2023-04-07T02:59:37;16.17;;;9.87;;
5157;SDS011;2598;52.364;9.772;2023-04-07T03:02:03;16.70;;;9.20;;
5157;SDS011;2598;52.364;9.772;2023-04-07T03:04:29;16.73;;;9.73;;
5157;SDS011;2598;52.364;9.772;2023-04-07T03:06:55;16.50;;;9.43;;
5157;SDS011;2598;52.364;9.772;2023-04-07T03:09:21;15.90;;;9.87;;
5157;SDS011;2598;52.364;9.772;2023-04-07T03:11:47;15.20;;;9.13;;
5157;SDS011;2598;52.364;9.772;2023-04-07T03:14:13;16.10;;;9.67;;
5157;SDS011;2598;52.364;9.772;2023-04-07T03:16:40;16.53;;;9.57;;
5157;SDS011;2598;52.364;9.772;2023-04-07T03:19:06;14.30;;;9.00;;
5157;SDS011;2598;52.364;9.772;2023-04-07T03:21:32;19.20;;;10.90;;
5157;SDS011;2598;52.364;9.772;2023-04-07T03:23:58;15.37;;;10.07;;
5157;SDS011;2598;52.364;9.772;2023-04-07T03:26:24;17.50;;;10.10;;
5157;SDS011;2598;52.364;9.772;2023-04-07T03:28:50;15.97;;;9.97;;
5157;SDS011;2598;52.364;9.772;2023-04-07T03:31:16;18.43;;;8.93;;
5157;SDS011;2598;52.364;9.772;2023-04-07T03:33:42;19.90;;;11.17;;
5157;SDS011;2598;52.364;9.772;2023-04-07T03:36:08;15.47;;;9.27;;
5157;SDS011;2598;52.364;9.772;2023-04-07T03:38:34;18.40;;;10.87;;
5157;SDS011;2598;52.364;9.772;2023-04-07T03:41:00;18.20;;;10.30;;
5157;SDS011;2598;52.364;9.772;2023-04-07T03:43:26;19.70;;;10.17;;
5157;SDS011;2598;52.364;9.772;2023-04-07T03:45:52;15.03;;;10.23;;
5157;SDS011;2598;52.364;9.772;2023-04-07T03:48:18;18.87;;;9.30;;
5157;SDS011;2598;52.364;9.772;2023-04-07T03:50:45;15.13;;;9.63;;
5157;SDS011;2598;52.364;9.772;2023-04-07T03:53:11;17.10;;;10.43;;
5157;SDS011;2598;52.364;9.772;2023-04-07T03:55:40;17.90;;;10.80;;
5157;SDS011;2598;52.364;9.772;2023-04-07T03:58:06;19.07;;;11.00;;
5157;SDS011;2598;52.364;9.772;2023-04-07T04:00:32;19.10;;;11.50;;
5157;SDS011;2598;52.364;9.772;2023-04-07T04:02:59;19.33;;;10.67;;
5157;SDS011;2598;52.364;9.772;2023-04-07T04:05:25;21.63;;;11.40;;
5157;SDS011;2598;52.364;9.772;2023-04-07T04:07:51;21.10;;;11.60;;
5157;SDS011;2598;52.364;9.772;2023-04-07T04:10:17;23.33;;;12.03;;
5157;SDS011;2598;52.364;9.772;2023-04-07T04:12:44;19.17;;;11.33;;
5157;SDS011;2598;52.364;9.772;2023-04-07T04:15:10;17.10;;;11.03;;
5157;SDS011;2598;52.364;9.772;2023-04-07T04:17:36;18.67;;;10.47;;
5157;SDS011;2598;52.364;9.772;2023-04-07T04:20:02;20.43;;;12.17;;
5157;SDS011;2598;52.364;9.772;2023-04-07T04:22:28;19.60;;;10.97;;
5157;SDS011;2598;52.364;9.772;2023-04-07T04:24:54;21.43;;;11.40;;
5157;SDS011;2598;52.364;9.772;2023-04-07T04:27:20;18.80;;;10.57;;
5157;SDS011;2598;52.364;9.772;2023-04-07T04:29:46;18.60;;;11.10;;
5157;SDS011;2598;52.364;9.772;2023-04-07T04:32:12;18.73;;;10.63;;
5157;SDS011;2598;52.364;9.772;2023-04-07T04:34:38;17.13;;;10.93;;
5157;SDS011;2598;52.364;9.772;2023-04-07T04:37:06;20.73;;;11.70;;
5157;SDS011;2598;52.364;9.772;2023-04-07T04:39:32;18.03;;;11.03;;
5157;SDS011;2598;52.364;9.772;2023-04-07T04:41:58;18.20;;;11.43;;
5157;SDS011;2598;52.364;9.772;2023-04-07T04:44:25;19.47;;;11.17;;
5157;SDS011;2598;52.364;9.772;2023-04-07T04:46:50;16.20;;;10.20;;
5157;SDS011;2598;52.364;9.772;2023-04-07T04:49:17;18.87;;;10.43;;
5157;SDS011;2598;52.364;9.772;2023-04-07T04:51:43;20.53;;;11.13;;
5157;SDS011;2598;52.364;9.772;2023-04-07T04:54:09;20.27;;;11.53;;
5157;SDS011;2598;52.364;9.772;2023-04-07T04:56:35;17.13;;;10.90;;
5157;SDS011;2598;52.364;9.772;2023-04-07T04:59:01;18.13;;;10.90;;
5157;SDS011;2598;52.364;9.772;2023-04-07T05:01:27;24.60;;;12.07;;
5157;SDS011;2598;52.364;9.772;2023-04-07T05:03:53;21.40;;;11.70;;
5157;SDS011;2598;52.364;9.772;2023-04-07T05:06:19;19.50;;;10.70;;
5157;SDS011;2598;52.364;9.772;2023-04-07T05:08:45;19.07;;;10.93;;
5157;SDS011;2598;52.364;9.772;2023-04-07T05:11:11;19.57;;;11.20;;
5157;SDS011;2598;52.364;9.772;2023-04-07T05:13:37;23.10;;;11.40;;
5157;SDS011;2598;52.364;9.772;2023-04-07T05:16:03;21.63;;;10.90;;
5157;SDS011;2598;52.364;9.772;2023-04-07T05:18:29;19.77;;;11.13;;
5157;SDS011;2598;52.364;9.772;2023-04-07T05:20:55;18.50;;;11.30;;
5157;SDS011;2598;52.364;9.772;2023-04-07T05:23:21;19.00;;;11.60;;
5157;SDS011;2598;52.364;9.772;2023-04-07T05:25:47;17.73;;;10.83;;
5157;SDS011;2598;52.364;9.772;2023-04-07T05:28:13;19.47;;;11.13;;
5157;SDS011;2598;52.364;9.772;2023-04-07T05:30:39;17.70;;;11.27;;
5157;SDS011;2598;52.364;9.772;2023-04-07T05:33:05;16.67;;;9.60;;
5157;SDS011;2598;52.364;9.772;2023-04-07T05:35:31;20.10;;;10.93;;
5157;SDS011;2598;52.364;9.772;2023-04-07T05:37:57;19.13;;;11.23;;
5157;SDS011;2598;52.364;9.772;2023-04-07T05:40:23;21.87;;;12.10;;
5157;SDS011;2598;52.364;9.772;2023-04-07T05:42:48;19.23;;;11.80;;
5157;SDS011;2598;52.364;9.772;2023-04-07T05:45:14;19.63;;;11.97;;
5157;SDS011;2598;52.364;9.772;2023-04-07T05:47:40;17.10;;;11.00;;
5157;SDS011;2598;52.364;9.772;2023-04-07T05:50:07;21.47;;;11.30;;
5157;SDS011;2598;52.364;9.772;2023-04-07T05:52:35;22.13;;;11.17;;
5157;SDS011;2598;52.364;9.772;2023-04-07T05:55:01;20.17;;;12.20;;
5157;SDS011;2598;52.364;9.772;2023-04-07T05:57:27;21.10;;;12.60;;
5157;SDS011;2598;52.364;9.772;2023-04-07T05:59:53;16.97;;;11.10;;
5157;SDS011;2598;52.364;9.772;2023-04-07T06:02:19;19.07;;;10.70;;
5157;SDS011;2598;52.364;9.772;2023-04-07T06:04:45;20.00;;;11.90;;
5157;SDS011;2598;52.364;9.772;2023-04-07T06:07:11;16.87;;;11.00;;
5157;SDS011;2598;52.364;9.772;2023-04-07T06:09:37;16.93;;;10.60;;
5157;SDS011;2598;52.364;9.772;2023-04-07T06:12:03;20.00;;;11.83;;
5157;SDS011;2598;52.364;9.772;2023-04-07T06:14:30;18.40;;;11.77;;
5157;SDS011;2598;52.364;9.772;2023-04-07T06:16:56;19.83;;;11.10;;
5157;SDS011;2598;52.364;9.772;2023-04-07T06:19:22;18.37;;;10.97;;
5157;SDS011;2598;52.364;9.772;2023-04-07T06:21:48;25.17;;;11.87;;
5157;SDS011;2598;52.364;9.772;2023-04-07T06:24:14;18.90;;;11.37;;
5157;SDS011;2598;52.364;9.772;2023-04-07T06:26:40;20.50;;;11.73;;
5157;SDS011;2598;52.364;9.772;2023-04-07T06:29:06;19.70;;;11.07;;
5157;SDS011;2598;52.364;9.772;2023-04-07T06:31:32;17.90;;;11.10;;
5157;SDS011;2598;52.364;9.772;2023-04-07T06:33:58;16.90;;;10.07;;
5157;SDS011;2598;52.364;9.772;2023-04-07T06:36:24;18.83;;;10.00;;
5157;SDS011;2598;52.364;9.772;2023-04-07T06:38:51;17.30;;;11.30;;
5157;SDS011;2598;52.364;9.772;2023-04-07T06:41:17;22.53;;;11.50;;
5157;SDS011;2598;52.364;9.772;2023-04-07T06:43:46;23.70;;;10.23;;
5157;SDS011;2598;52.364;9.772;2023-04-07T06:46:12;19.90;;;11.17;;
5157;SDS011;2598;52.364;9.772;2023-04-07T06:48:38;23.40;;;10.87;;
5157;SDS011;2598;52.364;9.772;2023-04-07T06:51:04;18.47;;;10.60;;
5157;SDS011;2598;52.364;9.772;2023-04-07T06:53:30;23.47;;;10.27;;
5157;SDS011;2598;52.364;9.772;2023-04-07T06:56:03;22.80;;;10.77;;
5157;SDS011;2598;52.364;9.772;2023-04-07T06:58:29;18.50;;;10.63;;
5157;SDS011;2598;52.364;9.772;2023-04-07T07:00:55;22.30;;;10.97;;
5157;SDS011;2598;52.364;9.772;2023-04-07T07:03:21;16.50;;;9.80;;
5157;SDS011;2598;52.364;9.772;2023-04-07T07:05:47;17.10;;;9.10;;
5157;SDS011;2598;52.364;9.772;2023-04-07T07:08:13;17.70;;;10.00;;
5157;SDS011;2598;52.364;9.772;2023-04-07T07:10:38;15.70;;;10.23;;
5157;SDS011;2598;52.364;9.772;2023-04-07T07:13:05;16.10;;;9.63;;
5157;SDS011;2598;52.364;9.772;2023-04-07T07:15:30;19.20;;;10.13;;
5157;SDS011;2598;52.364;9.772;2023-04-07T07:17:56;15.40;;;9.50;;
5157;SDS011;2598;52.364;9.772;2023-04-07T07:20:22;20.60;;;10.07;;
5157;SDS011;2598;52.364;9.772;2023-04-07T07:22:49;15.03;;;9.40;;
